»·PEaware :: N111PA KFTG-KCYS

N111PA :: KFTG-KCYS

FLIGHT INFORMATION

Flight Status: Arrived
Operator: Privately registered:
United States
More flights under this callsign
Pilot: Philip A. (19141)
Aircraft: CESSNA 208 CARAVAN
(C208)
More flights by this aircraft type
Origin: KFTG Front Range
United States
Destination: KCYS Cheyenne
United States
More flights between these airports :: More routes between these airports
Route: +GLL V89 CYS
File this flight plan on PilotEdge
Remarks:
Altitude:
(Current/Filed)
10,000ft
Speed:
(Current/Filed)
150kts
Departed: 05-Mar-19 11:56 AM
Arrived: 05-Mar-19 12:43 PM
Distance/Time
Traveled:
83nm/0:46
Distance/Time
To Go:
Arrived

Flight Plot

Page will automatically refresh every two minutes.


Map Options




Map Legend


Flown Route
Filed Route
Departure Airport
Arrival Airport
Navaid (VOR, NDB)
Fix

Horizontal Profiles

Position Reports

Time Latitude Longitude Heading Altitude Ground
Speed
05-Mar-19 11:38 39.791531 -104.548834 180 5517ft 0kts
05-Mar-19 11:39 39.791531 -104.548834 180 5517ft 0kts
05-Mar-19 11:40 39.791531 -104.548834 180 5517ft 0kts
05-Mar-19 11:41 39.791531 -104.548834 180 5517ft 0kts
05-Mar-19 11:42 39.791531 -104.548834 180 5517ft 0kts
05-Mar-19 11:43 39.791531 -104.548834 180 5517ft 0kts
05-Mar-19 11:44 39.791531 -104.548834 180 5517ft 0kts
05-Mar-19 11:45 39.791531 -104.548834 180 5517ft 0kts
05-Mar-19 11:46 39.791531 -104.548834 180 5517ft 0kts
05-Mar-19 11:47 39.791531 -104.548834 180 5517ft 0kts
05-Mar-19 11:48 39.791531 -104.548834 180 5517ft 0kts
05-Mar-19 11:48 39.791531 -104.548834 180 5517ft 0kts
05-Mar-19 11:50 39.791713 -104.548863 277 5517ft 5kts
05-Mar-19 11:51 39.792681 -104.550870 271 5517ft 12kts
05-Mar-19 11:51 39.792751 -104.555174 271 5517ft 15kts
05-Mar-19 11:52 39.792817 -104.560739 268 5517ft 15kts
05-Mar-19 11:54 39.793088 -104.565192 358 5517ft 0kts
05-Mar-19 11:55 39.793695 -104.565156 2 5517ft 9kts
05-Mar-19 11:55 39.793679 -104.555127 91 5575ft 70kts
05-Mar-19 11:56 39.791455 -104.528175 76 6429ft 77kts
05-Mar-19 11:57 39.794847 -104.501086 70 7356ft 79kts
05-Mar-19 11:58 39.800955 -104.475060 24 8202ft 72kts
05-Mar-19 11:59 39.819214 -104.466179 16 9032ft 71kts
05-Mar-19 12:00 39.838140 -104.462352 350 9816ft 69kts
05-Mar-19 12:01 39.863386 -104.466065 351 10006ft 119kts
05-Mar-19 12:02 39.899361 -104.470842 351 10025ft 135kts
05-Mar-19 12:03 39.937430 -104.475947 351 10014ft 139kts
05-Mar-19 12:04 39.975811 -104.481123 351 10013ft 139kts
05-Mar-19 12:05 40.014354 -104.486344 351 10013ft 139kts
05-Mar-19 12:06 40.052826 -104.491566 351 10012ft 139kts
05-Mar-19 12:07 40.091278 -104.496792 351 10012ft 139kts
05-Mar-19 12:08 40.129937 -104.502055 351 10017ft 140kts
05-Mar-19 12:09 40.167706 -104.511729 330 10019ft 139kts
05-Mar-19 12:10 40.204164 -104.523315 11 10023ft 144kts
05-Mar-19 12:11 40.243034 -104.527725 351 10025ft 141kts
05-Mar-19 12:12 40.281884 -104.532029 351 10030ft 139kts
05-Mar-19 12:13 40.320359 -104.535798 351 10036ft 139kts
05-Mar-19 12:14 40.358817 -104.539463 351 10044ft 139kts
05-Mar-19 12:15 40.397646 -104.543150 350 10053ft 140kts
05-Mar-19 12:16 40.436737 -104.546863 350 10061ft 141kts
05-Mar-19 12:17 40.476199 -104.550615 349 10068ft 142kts
05-Mar-19 12:18 40.516010 -104.552158 356 10067ft 145kts
05-Mar-19 12:19 40.556375 -104.549584 356 10063ft 144kts
05-Mar-19 12:20 40.596803 -104.546863 357 9901ft 152kts
05-Mar-19 12:21 40.640861 -104.543817 358 9312ft 161kts
05-Mar-19 12:22 40.684964 -104.540667 357 9036ft 152kts
05-Mar-19 12:23 40.726433 -104.537784 356 9018ft 149kts
05-Mar-19 12:24 40.768168 -104.534875 355 9000ft 151kts
05-Mar-19 12:25 40.810755 -104.531932 355 8983ft 154kts
05-Mar-19 12:26 40.853969 -104.528933 355 8983ft 155kts
05-Mar-19 12:27 40.897020 -104.525934 355 8983ft 155kts
05-Mar-19 12:28 40.940280 -104.522923 355 8983ft 155kts
05-Mar-19 12:29 40.983457 -104.519914 355 8983ft 155kts
05-Mar-19 12:30 41.026809 -104.516890 355 8983ft 156kts
05-Mar-19 12:31 41.058539 -104.545514 328 8921ft 150kts
05-Mar-19 12:32 41.101264 -104.540885 11 8836ft 162kts
05-Mar-19 12:33 41.141750 -104.524726 9 8084ft 142kts
05-Mar-19 12:34 41.164695 -104.541167 263 7516ft 97kts
05-Mar-19 12:35 41.161283 -104.574681 257 7905ft 87kts
05-Mar-19 12:36 41.158471 -104.605623 268 7768ft 81kts
05-Mar-19 12:37 41.158509 -104.635095 268 7906ft 84kts
05-Mar-19 12:38 41.156594 -104.670625 261 7998ft 109kts
05-Mar-19 12:39 41.155021 -104.709839 258 7774ft 110kts
05-Mar-19 12:40 41.152826 -104.751484 268 6981ft 100kts
05-Mar-19 12:41 41.154110 -104.782686 268 6292ft 78kts
05-Mar-19 12:42 41.154547 -104.800767 226 6159ft 19kts
05-Mar-19 12:43 41.154213 -104.805573 275 6159ft 11kts
05-Mar-19 12:44 41.154457 -104.809228 274 6159ft 8kts
05-Mar-19 12:45 41.154669 -104.812424 272 6159ft 11kts
05-Mar-19 12:46 41.154937 -104.816520 269 6159ft 0kts
05-Mar-19 12:47 41.154396 -104.819950 41 6159ft 0kts
05-Mar-19 12:48 41.154396 -104.819950 41 6159ft 0kts
05-Mar-19 12:49 41.154396 -104.819950 41 6159ft 0kts
05-Mar-19 12:50 41.154396 -104.819950 41 6159ft 0kts
05-Mar-19 12:51 41.154396 -104.819950 41 6159ft 0kts
05-Mar-19 12:52 41.154396 -104.819950 41 6159ft 0kts
05-Mar-19 12:53 41.154396 -104.819950 41 6159ft 0kts
05-Mar-19 12:54 41.154396 -104.819950 41 6159ft 0kts
05-Mar-19 12:55 41.154396 -104.819950 41 6159ft 0kts
05-Mar-19 12:56 41.154396 -104.819950 41 6159ft 0kts

Navigation Log

Ident Type
Flight plan parsing failed, navigation log unavailable